Terminal Aerodrome Forecast
Issued by NWS

Home | Current Version | Previous Version | Text Only | Print | Product List | Glossary On
Versions: 1 2 3 4 5 6 7 8 9 10 11 12 13 14 15 16 17 18 19 20
000
FTAK31 PANC 221148
TAFADQ
TAF
PADQ 221148Z 2212/2312 30015G25KT 4SM -SHSN SCT025 OVC040
      TEMPO 2212/2216 2SM -SN BKN025 OVC040
     FM222200 30015G25KT 2SM -SN BKN025 OVC040
     FM230500 32015G25KT 4SM -SHSN SCT025 BKN040=

USA.gov is the U.S. government's official web portal to all federal, state and local government web resources and services.